• Join FlightAware (Why Join?)
  • Login
  • US Flag 
10:38AM EDT


 

Airport Tracker/Info


-or-


 

Live Flight TrackerFlight Track Log ✈ N894SA ✈ 02-Dec-2013 ✈ KVNC - KBCT

Flight Track Log - Related Links

Times and Time Zones

All times are in EST time to prevent confusion due to time zone crossing. See the N894SA flight status page for this flight to view local times or setup timezone preferences in your user account.

Time Position Orientation Groundspeed Altitude Reporting Facility
EST Latitude Longitude Course Direction KTS MPH feet Rate Location/Type
04:15PM 27.0667 -82.4500 138° Southeast 69 79 500  Level Tampa TRACON
04:16PM 27.0500 -82.4333 138° Southeast 93 107 1,100 600 Climbing Tampa TRACON
04:17PM 27.0500 -82.4167 90° East 88 101 1,800 660 Climbing Tampa TRACON
04:18PM 27.0500 -82.3833 90° East 90 104 2,500 120 Climbing Tampa TRACON
04:20PM 27.0302 -82.3139 108° East  Level FlightAware Approximate
04:27PM 26.9664 -82.0539 107° East  Level FlightAware Approximate
04:28PM 26.9561 -82.0170 107° East  Level FlightAware Approximate
04:29PM 26.9457 -81.9801 107° East  Level FlightAware Approximate
04:30PM 26.9353 -81.9432 108° East  Level FlightAware Approximate
04:31PM 26.9249 -81.9063 108° East  Level FlightAware Approximate
04:32PM 26.9146 -81.8694 108° East  Level FlightAware Approximate
04:33PM 26.9041 -81.8326 108° East  Level FlightAware Approximate
04:34PM 26.8937 -81.7957 108° East  Level FlightAware Approximate
04:35PM 26.8833 -81.7588 108° East  Level FlightAware Approximate
04:35PM 26.9117 -81.6692 108° East 153 176 5,000  Level Miami Center
04:36PM 26.8729 -81.7220 108° East  Level FlightAware Approximate
04:36PM 26.9047 -81.6200 99° East 153 176 5,000  Level Miami Center
04:37PM 26.8624 -81.6851 108° East  Level FlightAware Approximate
04:37PM 26.9000 -81.5778 97° East 153 176 5,000  Level Miami Center
04:38PM 26.8519 -81.6483 108° East  Level FlightAware Approximate
04:38PM 26.8933 -81.5264 98° East 153 176 5,000  Level Miami Center
04:39PM 26.8415 -81.6114 108° East  Level FlightAware Approximate
04:39PM 26.8864 -81.4819 100° East 148 170 5,000  Level Miami Center
04:40PM 26.8817 -81.4328 96° East 148 170 5,000  Level Miami Center
04:41PM 26.8747 -81.3883 100° East 143 165 5,000  Level Miami Center
04:42PM 26.8697 -81.3414 97° East 143 165 5,000  Level Miami Center
04:43PM 26.8628 -81.2969 100° East 143 165 5,000  Level Miami Center
04:44PM 26.8581 -81.2503 96° East 143 165 5,000  Level Miami Center
04:45PM 26.8508 -81.2081 101° East 143 165 5,000  Level Miami Center
04:46PM 26.8461 -81.1636 97° East 143 165 5,000  Level Miami Center
04:47PM 26.8411 -81.1169 97° East 143 165 5,000  Level Miami Center
04:48PM 26.8342 -81.0703 99° East 143 165 5,000  Level Miami Center
04:49PM 26.8269 -81.0256 100° East 148 170 5,000  Level Miami Center
04:50PM 26.8222 -80.9789 96° East 142 163 5,000  Level Miami Center
04:51PM 26.8169 -80.9392 98° East 142 163 5,000  Level Miami Center
04:52PM 26.8100 -80.8947 100° East 142 163 5,000  Level Miami Center
04:53PM 26.8028 -80.8456 99° East 142 163 5,000  Level Miami Center
04:54PM 26.7958 -80.7989 99° East 142 163 5,000  Level Miami Center
04:55PM 26.7928 -80.7522 94° East 142 163 5,000  Level Miami Center
04:56PM 26.7856 -80.7125 102° East 142 163 5,000  Level Miami Center
04:57PM 26.7742 -80.6656 105° East 142 163 5,000  Level Miami Center
04:58PM 26.7417 -80.6367 142° Southeast 142 163 5,000  Level Miami Center
04:59PM 26.7133 -80.5961 128° Southeast 151 174 5,000 -60 Level Miami Center
05:00PM 26.6914 -80.5628 126° Southeast 151 174 4,900 -300 Descending Miami Center
05:01PM 26.6592 -80.5178 129° Southeast 157 181 4,400 -540 Descending Miami Center
05:02PM 26.6350 -80.4822 127° Southeast 157 181 3,900 -420 Descending Miami Center
05:04PM 26.5918 -80.4149 126° Southeast  Level FlightAware Approximate
05:04PM 26.5581 -80.3731 126° Southeast 160 184 3,000  Level Miami Center
05:05PM 26.5381 -80.3422 126° Southeast 145 167 3,000 -300 Level Miami Center
05:06PM 26.5117 -80.3067 130° Southeast 146 168 2,500 -540 Descending Miami Center
05:07PM 26.4836 -80.2639 126° Southeast 165 190 2,000 -300 Descending Miami Center
05:08PM 26.4553 -80.2236 128° Southeast 151 174 2,000 -120 Level Miami Center
05:09PM 26.4286 -80.1975 139° Southeast 142 163 1,800 -300 Descending Miami Center
05:10PM 26.3939 -80.1686 143° Southeast 167 192 1,400 -540 Descending Miami Center
05:11PM 26.3672 -80.1425 139° Southeast 118 136 800 -600 Descending Miami Center
05:12PM 26.3678 -80.1169 89° East 83 96 200 -600 Descending Miami Center